sensor_id;sensor_type;location;lat;lon;timestamp;P1;durP1;ratioP1;P2;durP2;ratioP2
40951;SDS011;26682;51.660;19.338;2023-02-28T00:02:12;52.08;;;26.13;;
40951;SDS011;26682;51.660;19.338;2023-02-28T00:04:54;50.42;;;25.48;;
40951;SDS011;26682;51.660;19.338;2023-02-28T00:07:42;42.22;;;23.00;;
40951;SDS011;26682;51.660;19.338;2023-02-28T00:10:26;44.97;;;21.25;;
40951;SDS011;26682;51.660;19.338;2023-02-28T00:13:11;47.25;;;22.45;;
40951;SDS011;26682;51.660;19.338;2023-02-28T00:16:03;45.00;;;22.35;;
40951;SDS011;26682;51.660;19.338;2023-02-28T00:18:51;51.95;;;24.90;;
40951;SDS011;26682;51.660;19.338;2023-02-28T00:21:34;46.28;;;22.83;;
40951;SDS011;26682;51.660;19.338;2023-02-28T00:24:17;47.83;;;22.23;;
40951;SDS011;26682;51.660;19.338;2023-02-28T00:26:59;43.40;;;22.20;;
40951;SDS011;26682;51.660;19.338;2023-02-28T00:29:42;44.25;;;21.95;;
40951;SDS011;26682;51.660;19.338;2023-02-28T00:32:25;39.97;;;20.95;;
40951;SDS011;26682;51.660;19.338;2023-02-28T00:35:08;40.40;;;20.05;;
40951;SDS011;26682;51.660;19.338;2023-02-28T00:37:51;42.42;;;20.45;;
40951;SDS011;26682;51.660;19.338;2023-02-28T00:40:34;42.80;;;19.42;;
40951;SDS011;26682;51.660;19.338;2023-02-28T00:43:16;41.13;;;19.42;;
40951;SDS011;26682;51.660;19.338;2023-02-28T00:45:59;39.55;;;19.48;;
40951;SDS011;26682;51.660;19.338;2023-02-28T00:48:41;36.03;;;20.45;;
40951;SDS011;26682;51.660;19.338;2023-02-28T00:51:24;34.47;;;18.58;;
40951;SDS011;26682;51.660;19.338;2023-02-28T00:54:07;36.10;;;19.00;;
40951;SDS011;26682;51.660;19.338;2023-02-28T00:56:49;35.95;;;18.40;;
40951;SDS011;26682;51.660;19.338;2023-02-28T00:59:32;35.03;;;17.27;;
40951;SDS011;26682;51.660;19.338;2023-02-28T01:02:14;37.40;;;19.27;;
40951;SDS011;26682;51.660;19.338;2023-02-28T01:04:57;32.17;;;18.67;;
40951;SDS011;26682;51.660;19.338;2023-02-28T01:07:39;33.22;;;17.83;;
40951;SDS011;26682;51.660;19.338;2023-02-28T01:10:21;30.98;;;17.17;;
40951;SDS011;26682;51.660;19.338;2023-02-28T01:13:04;33.63;;;17.30;;
40951;SDS011;26682;51.660;19.338;2023-02-28T01:15:51;35.13;;;18.08;;
40951;SDS011;26682;51.660;19.338;2023-02-28T01:18:37;35.95;;;19.88;;
40951;SDS011;26682;51.660;19.338;2023-02-28T01:21:20;33.53;;;18.50;;
40951;SDS011;26682;51.660;19.338;2023-02-28T01:24:04;35.60;;;20.42;;
40951;SDS011;26682;51.660;19.338;2023-02-28T01:26:47;49.75;;;23.55;;
40951;SDS011;26682;51.660;19.338;2023-02-28T01:29:29;40.17;;;22.27;;
40951;SDS011;26682;51.660;19.338;2023-02-28T01:32:12;38.65;;;23.33;;
40951;SDS011;26682;51.660;19.338;2023-02-28T01:34:55;42.08;;;22.75;;
40951;SDS011;26682;51.660;19.338;2023-02-28T01:37:37;41.38;;;22.90;;
40951;SDS011;26682;51.660;19.338;2023-02-28T01:40:20;46.80;;;23.75;;
40951;SDS011;26682;51.660;19.338;2023-02-28T01:43:04;50.22;;;24.73;;
40951;SDS011;26682;51.660;19.338;2023-02-28T01:45:59;47.65;;;25.80;;
40951;SDS011;26682;51.660;19.338;2023-02-28T01:48:45;53.60;;;25.55;;
40951;SDS011;26682;51.660;19.338;2023-02-28T01:54:28;46.15;;;25.25;;
40951;SDS011;26682;51.660;19.338;2023-02-28T01:57:14;51.28;;;25.85;;
40951;SDS011;26682;51.660;19.338;2023-02-28T02:00:00;55.83;;;28.80;;
40951;SDS011;26682;51.660;19.338;2023-02-28T02:02:54;61.22;;;29.17;;
40951;SDS011;26682;51.660;19.338;2023-02-28T02:05:40;59.15;;;30.17;;
40951;SDS011;26682;51.660;19.338;2023-02-28T02:08:24;56.92;;;30.00;;
40951;SDS011;26682;51.660;19.338;2023-02-28T02:11:16;60.03;;;29.05;;
40951;SDS011;26682;51.660;19.338;2023-02-28T02:33:06;59.67;;;30.27;;
40951;SDS011;26682;51.660;19.338;2023-02-28T02:36:18;51.92;;;26.80;;
40951;SDS011;26682;51.660;19.338;2023-02-28T02:39:06;49.63;;;26.60;;
40951;SDS011;26682;51.660;19.338;2023-02-28T02:41:51;46.85;;;25.30;;
40951;SDS011;26682;51.660;19.338;2023-02-28T02:44:49;48.20;;;24.70;;
40951;SDS011;26682;51.660;19.338;2023-02-28T02:47:37;44.92;;;25.38;;
40951;SDS011;26682;51.660;19.338;2023-02-28T02:50:26;44.67;;;25.35;;
40951;SDS011;26682;51.660;19.338;2023-02-28T02:53:15;51.42;;;26.25;;
40951;SDS011;26682;51.660;19.338;2023-02-28T02:56:03;46.90;;;25.42;;
40951;SDS011;26682;51.660;19.338;2023-02-28T02:58:49;48.53;;;26.17;;
40951;SDS011;26682;51.660;19.338;2023-02-28T03:01:35;53.78;;;28.15;;
40951;SDS011;26682;51.660;19.338;2023-02-28T03:04:21;55.95;;;29.17;;
40951;SDS011;26682;51.660;19.338;2023-02-28T03:07:06;63.50;;;29.20;;
40951;SDS011;26682;51.660;19.338;2023-02-28T03:09:50;65.95;;;30.05;;
40951;SDS011;26682;51.660;19.338;2023-02-28T03:12:41;64.60;;;31.05;;
40951;SDS011;26682;51.660;19.338;2023-02-28T03:15:42;56.85;;;29.48;;
40951;SDS011;26682;51.660;19.338;2023-02-28T03:24:36;56.53;;;28.83;;
40951;SDS011;26682;51.660;19.338;2023-02-28T03:36:13;57.50;;;28.10;;
40951;SDS011;26682;51.660;19.338;2023-02-28T03:41:49;55.38;;;28.52;;
40951;SDS011;26682;51.660;19.338;2023-02-28T03:44:40;60.85;;;30.67;;
40951;SDS011;26682;51.660;19.338;2023-02-28T03:50:26;67.65;;;32.58;;
40951;SDS011;26682;51.660;19.338;2023-02-28T03:53:21;69.05;;;33.65;;
40951;SDS011;26682;51.660;19.338;2023-02-28T03:56:16;71.07;;;35.33;;
40951;SDS011;26682;51.660;19.338;2023-02-28T03:59:06;73.03;;;35.75;;
40951;SDS011;26682;51.660;19.338;2023-02-28T04:01:56;77.45;;;38.63;;
40951;SDS011;26682;51.660;19.338;2023-02-28T04:04:40;87.28;;;40.17;;
40951;SDS011;26682;51.660;19.338;2023-02-28T04:07:30;83.70;;;39.67;;
40951;SDS011;26682;51.660;19.338;2023-02-28T04:10:13;83.38;;;38.45;;
40951;SDS011;26682;51.660;19.338;2023-02-28T04:12:56;78.00;;;38.08;;
40951;SDS011;26682;51.660;19.338;2023-02-28T04:15:38;78.65;;;38.55;;
40951;SDS011;26682;51.660;19.338;2023-02-28T04:18:21;85.45;;;40.20;;
40951;SDS011;26682;51.660;19.338;2023-02-28T04:21:04;86.07;;;39.22;;
40951;SDS011;26682;51.660;19.338;2023-02-28T04:23:47;73.03;;;38.10;;
40951;SDS011;26682;51.660;19.338;2023-02-28T04:26:30;71.22;;;36.65;;
40951;SDS011;26682;51.660;19.338;2023-02-28T04:29:23;85.28;;;39.25;;
40951;SDS011;26682;51.660;19.338;2023-02-28T04:32:10;77.57;;;39.75;;
40951;SDS011;26682;51.660;19.338;2023-02-28T04:34:52;74.90;;;38.40;;
40951;SDS011;26682;51.660;19.338;2023-02-28T04:37:35;83.22;;;41.35;;
40951;SDS011;26682;51.660;19.338;2023-02-28T04:40:18;89.18;;;42.75;;
40951;SDS011;26682;51.660;19.338;2023-02-28T04:43:01;80.18;;;39.45;;
40951;SDS011;26682;51.660;19.338;2023-02-28T04:45:44;85.63;;;41.22;;
40951;SDS011;26682;51.660;19.338;2023-02-28T04:48:28;93.30;;;41.40;;
40951;SDS011;26682;51.660;19.338;2023-02-28T04:51:12;95.47;;;43.97;;
40951;SDS011;26682;51.660;19.338;2023-02-28T04:53:56;130.48;;;53.78;;
40951;SDS011;26682;51.660;19.338;2023-02-28T04:56:38;134.70;;;54.97;;
40951;SDS011;26682;51.660;19.338;2023-02-28T04:59:21;131.05;;;57.78;;
40951;SDS011;26682;51.660;19.338;2023-02-28T05:02:03;121.22;;;54.50;;
40951;SDS011;26682;51.660;19.338;2023-02-28T05:04:49;106.82;;;51.60;;
40951;SDS011;26682;51.660;19.338;2023-02-28T05:07:31;113.43;;;51.97;;
40951;SDS011;26682;51.660;19.338;2023-02-28T05:10:14;117.63;;;53.45;;
40951;SDS011;26682;51.660;19.338;2023-02-28T05:12:56;113.68;;;51.50;;
40951;SDS011;26682;51.660;19.338;2023-02-28T05:15:39;96.25;;;44.85;;
40951;SDS011;26682;51.660;19.338;2023-02-28T05:18:22;93.32;;;43.97;;
40951;SDS011;26682;51.660;19.338;2023-02-28T05:21:04;110.22;;;50.22;;
40951;SDS011;26682;51.660;19.338;2023-02-28T05:23:47;116.90;;;54.33;;
40951;SDS011;26682;51.660;19.338;2023-02-28T05:26:30;124.43;;;55.85;;
40951;SDS011;26682;51.660;19.338;2023-02-28T05:29:15;149.70;;;63.57;;
40951;SDS011;26682;51.660;19.338;2023-02-28T05:31:58;191.70;;;78.38;;
40951;SDS011;26682;51.660;19.338;2023-02-28T05:34:41;164.50;;;73.78;;
40951;SDS011;26682;51.660;19.338;2023-02-28T05:37:23;178.25;;;79.15;;
40951;SDS011;26682;51.660;19.338;2023-02-28T05:40:06;177.98;;;77.97;;
40951;SDS011;26682;51.660;19.338;2023-02-28T05:42:52;170.27;;;76.53;;
40951;SDS011;26682;51.660;19.338;2023-02-28T05:45:35;168.93;;;74.20;;
40951;SDS011;26682;51.660;19.338;2023-02-28T05:48:23;164.50;;;74.70;;
40951;SDS011;26682;51.660;19.338;2023-02-28T05:51:08;149.30;;;71.70;;
40951;SDS011;26682;51.660;19.338;2023-02-28T05:53:51;147.77;;;74.40;;
40951;SDS011;26682;51.660;19.338;2023-02-28T05:56:34;169.27;;;94.03;;
40951;SDS011;26682;51.660;19.338;2023-02-28T05:59:53;135.95;;;75.15;;
40951;SDS011;26682;51.660;19.338;2023-02-28T06:02:39;118.10;;;61.05;;
40951;SDS011;26682;51.660;19.338;2023-02-28T06:05:29;125.82;;;69.00;;
40951;SDS011;26682;51.660;19.338;2023-02-28T06:08:11;133.65;;;76.72;;
40951;SDS011;26682;51.660;19.338;2023-02-28T06:10:54;140.27;;;77.32;;
40951;SDS011;26682;51.660;19.338;2023-02-28T06:13:36;141.65;;;76.10;;
40951;SDS011;26682;51.660;19.338;2023-02-28T06:16:20;135.52;;;71.68;;
40951;SDS011;26682;51.660;19.338;2023-02-28T06:19:03;106.13;;;58.03;;
40951;SDS011;26682;51.660;19.338;2023-02-28T06:21:48;110.75;;;60.80;;
40951;SDS011;26682;51.660;19.338;2023-02-28T06:24:50;122.32;;;59.65;;
40951;SDS011;26682;51.660;19.338;2023-02-28T06:27:35;118.20;;;58.10;;
40951;SDS011;26682;51.660;19.338;2023-02-28T06:30:18;110.07;;;56.67;;
40951;SDS011;26682;51.660;19.338;2023-02-28T06:33:07;151.63;;;68.18;;
40951;SDS011;26682;51.660;19.338;2023-02-28T06:35:50;224.20;;;91.25;;
40951;SDS011;26682;51.660;19.338;2023-02-28T06:38:39;222.18;;;96.45;;
40951;SDS011;26682;51.660;19.338;2023-02-28T06:41:24;200.50;;;92.63;;
40951;SDS011;26682;51.660;19.338;2023-02-28T06:44:23;150.57;;;71.38;;
40951;SDS011;26682;51.660;19.338;2023-02-28T06:47:32;124.18;;;61.78;;
40951;SDS011;26682;51.660;19.338;2023-02-28T06:50:16;86.15;;;45.10;;
40951;SDS011;26682;51.660;19.338;2023-02-28T06:53:09;99.07;;;48.90;;
40951;SDS011;26682;51.660;19.338;2023-02-28T06:56:03;84.13;;;41.97;;
40951;SDS011;26682;51.660;19.338;2023-02-28T06:58:51;74.30;;;41.10;;
40951;SDS011;26682;51.660;19.338;2023-02-28T07:01:35;76.65;;;39.97;;
40951;SDS011;26682;51.660;19.338;2023-02-28T07:04:19;68.13;;;37.50;;
40951;SDS011;26682;51.660;19.338;2023-02-28T07:07:11;68.65;;;38.92;;
40951;SDS011;26682;51.660;19.338;2023-02-28T07:09:59;70.93;;;38.35;;
40951;SDS011;26682;51.660;19.338;2023-02-28T07:12:42;71.10;;;40.15;;
40951;SDS011;26682;51.660;19.338;2023-02-28T07:15:27;84.97;;;44.15;;
40951;SDS011;26682;51.660;19.338;2023-02-28T07:18:13;80.53;;;43.25;;
40951;SDS011;26682;51.660;19.338;2023-02-28T07:20:56;78.93;;;43.88;;
40951;SDS011;26682;51.660;19.338;2023-02-28T07:23:43;69.20;;;38.72;;
40951;SDS011;26682;51.660;19.338;2023-02-28T07:26:26;48.38;;;26.40;;
40951;SDS011;26682;51.660;19.338;2023-02-28T07:29:09;47.03;;;23.83;;
40951;SDS011;26682;51.660;19.338;2023-02-28T07:31:59;51.90;;;25.08;;
40951;SDS011;26682;51.660;19.338;2023-02-28T07:34:44;38.50;;;22.00;;
40951;SDS011;26682;51.660;19.338;2023-02-28T07:37:26;37.30;;;20.58;;
40951;SDS011;26682;51.660;19.338;2023-02-28T07:40:10;45.85;;;22.90;;
40951;SDS011;26682;51.660;19.338;2023-02-28T07:42:54;30.65;;;18.90;;
40951;SDS011;26682;51.660;19.338;2023-02-28T07:45:46;29.75;;;17.83;;
40951;SDS011;26682;51.660;19.338;2023-02-28T07:49:23;30.45;;;15.75;;
40951;SDS011;26682;51.660;19.338;2023-02-28T07:52:13;30.17;;;15.10;;
40951;SDS011;26682;51.660;19.338;2023-02-28T07:55:01;26.42;;;14.73;;
40951;SDS011;26682;51.660;19.338;2023-02-28T07:58:08;30.50;;;14.60;;
40951;SDS011;26682;51.660;19.338;2023-02-28T08:01:07;27.30;;;14.45;;
40951;SDS011;26682;51.660;19.338;2023-02-28T08:04:04;40.75;;;17.75;;
40951;SDS011;26682;51.660;19.338;2023-02-28T08:06:46;27.70;;;15.82;;
40951;SDS011;26682;51.660;19.338;2023-02-28T08:09:38;25.60;;;15.15;;
40951;SDS011;26682;51.660;19.338;2023-02-28T08:15:09;24.23;;;14.00;;
40951;SDS011;26682;51.660;19.338;2023-02-28T08:18:14;29.63;;;14.77;;
40951;SDS011;26682;51.660;19.338;2023-02-28T08:20:57;28.08;;;13.90;;
40951;SDS011;26682;51.660;19.338;2023-02-28T08:23:58;26.02;;;13.70;;
40951;SDS011;26682;51.660;19.338;2023-02-28T08:29:46;17.07;;;9.20;;
40951;SDS011;26682;51.660;19.338;2023-02-28T08:32:38;19.90;;;12.35;;
40951;SDS011;26682;51.660;19.338;2023-02-28T08:35:21;24.17;;;12.38;;
40951;SDS011;26682;51.660;19.338;2023-02-28T08:38:05;18.35;;;10.43;;
40951;SDS011;26682;51.660;19.338;2023-02-28T08:41:00;26.40;;;10.63;;
40951;SDS011;26682;51.660;19.338;2023-02-28T08:43:44;17.33;;;10.35;;
40951;SDS011;26682;51.660;19.338;2023-02-28T08:49:14;18.33;;;10.43;;
40951;SDS011;26682;51.660;19.338;2023-02-28T08:52:00;19.88;;;11.00;;
40951;SDS011;26682;51.660;19.338;2023-02-28T08:54:43;22.25;;;12.57;;
40951;SDS011;26682;51.660;19.338;2023-02-28T08:57:27;19.02;;;11.20;;
40951;SDS011;26682;51.660;19.338;2023-02-28T09:00:15;29.23;;;9.88;;
40951;SDS011;26682;51.660;19.338;2023-02-28T09:03:01;13.52;;;8.57;;
40951;SDS011;26682;51.660;19.338;2023-02-28T09:05:59;21.08;;;11.65;;
40951;SDS011;26682;51.660;19.338;2023-02-28T09:08:44;18.58;;;11.35;;
40951;SDS011;26682;51.660;19.338;2023-02-28T09:11:27;17.10;;;11.05;;
40951;SDS011;26682;51.660;19.338;2023-02-28T09:14:11;20.98;;;10.30;;
40951;SDS011;26682;51.660;19.338;2023-02-28T09:16:57;11.70;;;7.78;;
40951;SDS011;26682;51.660;19.338;2023-02-28T09:19:59;15.45;;;9.10;;
40951;SDS011;26682;51.660;19.338;2023-02-28T09:23:00;30.33;;;10.48;;
40951;SDS011;26682;51.660;19.338;2023-02-28T09:25:57;11.88;;;7.20;;
40951;SDS011;26682;51.660;19.338;2023-02-28T09:29:02;16.92;;;10.00;;
40951;SDS011;26682;51.660;19.338;2023-02-28T09:32:00;27.48;;;8.85;;
40951;SDS011;26682;51.660;19.338;2023-02-28T09:34:43;14.80;;;7.80;;
40951;SDS011;26682;51.660;19.338;2023-02-28T09:37:29;10.98;;;7.20;;
40951;SDS011;26682;51.660;19.338;2023-02-28T09:40:13;15.73;;;7.85;;
40951;SDS011;26682;51.660;19.338;2023-02-28T09:43:04;14.95;;;8.90;;
40951;SDS011;26682;51.660;19.338;2023-02-28T09:45:48;14.73;;;8.23;;
40951;SDS011;26682;51.660;19.338;2023-02-28T09:48:41;13.43;;;7.53;;
40951;SDS011;26682;51.660;19.338;2023-02-28T09:51:30;12.18;;;7.50;;
40951;SDS011;26682;51.660;19.338;2023-02-28T09:54:48;22.80;;;11.68;;
40951;SDS011;26682;51.660;19.338;2023-02-28T09:57:46;11.98;;;8.07;;
40951;SDS011;26682;51.660;19.338;2023-02-28T10:00:33;13.67;;;7.90;;
40951;SDS011;26682;51.660;19.338;2023-02-28T10:06:20;21.35;;;10.02;;
40951;SDS011;26682;51.660;19.338;2023-02-28T10:09:14;15.18;;;9.45;;
40951;SDS011;26682;51.660;19.338;2023-02-28T10:12:05;16.10;;;9.00;;
40951;SDS011;26682;51.660;19.338;2023-02-28T10:14:51;14.25;;;9.07;;
40951;SDS011;26682;51.660;19.338;2023-02-28T10:17:38;21.77;;;10.65;;
40951;SDS011;26682;51.660;19.338;2023-02-28T10:20:44;16.60;;;10.48;;
40951;SDS011;26682;51.660;19.338;2023-02-28T10:23:28;16.63;;;8.45;;
40951;SDS011;26682;51.660;19.338;2023-02-28T10:26:17;12.88;;;8.32;;
40951;SDS011;26682;51.660;19.338;2023-02-28T10:28:59;31.73;;;10.15;;
40951;SDS011;26682;51.660;19.338;2023-02-28T10:31:42;18.65;;;9.25;;
40951;SDS011;26682;51.660;19.338;2023-02-28T10:34:25;14.30;;;8.40;;
40951;SDS011;26682;51.660;19.338;2023-02-28T10:37:10;18.92;;;9.70;;
40951;SDS011;26682;51.660;19.338;2023-02-28T10:39:56;23.88;;;10.00;;
40951;SDS011;26682;51.660;19.338;2023-02-28T10:42:39;13.60;;;8.45;;
40951;SDS011;26682;51.660;19.338;2023-02-28T10:45:22;14.25;;;9.55;;
40951;SDS011;26682;51.660;19.338;2023-02-28T10:51:19;19.33;;;10.35;;
40951;SDS011;26682;51.660;19.338;2023-02-28T10:54:29;21.27;;;9.95;;
40951;SDS011;26682;51.660;19.338;2023-02-28T10:57:23;15.38;;;9.35;;
40951;SDS011;26682;51.660;19.338;2023-02-28T11:00:15;32.55;;;13.93;;
40951;SDS011;26682;51.660;19.338;2023-02-28T11:03:04;20.83;;;11.05;;
40951;SDS011;26682;51.660;19.338;2023-02-28T11:06:26;18.13;;;10.35;;
40951;SDS011;26682;51.660;19.338;2023-02-28T11:12:20;18.48;;;11.10;;
40951;SDS011;26682;51.660;19.338;2023-02-28T11:15:34;17.50;;;10.75;;
40951;SDS011;26682;51.660;19.338;2023-02-28T11:18:24;21.58;;;11.43;;
40951;SDS011;26682;51.660;19.338;2023-02-28T11:21:18;17.25;;;10.45;;
40951;SDS011;26682;51.660;19.338;2023-02-28T11:24:23;31.90;;;11.50;;
40951;SDS011;26682;51.660;19.338;2023-02-28T11:27:26;18.13;;;11.05;;
40951;SDS011;26682;51.660;19.338;2023-02-28T11:30:46;20.42;;;11.85;;
40951;SDS011;26682;51.660;19.338;2023-02-28T11:33:53;16.05;;;10.52;;
40951;SDS011;26682;51.660;19.338;2023-02-28T11:36:59;19.50;;;11.73;;
40951;SDS011;26682;51.660;19.338;2023-02-28T11:39:55;23.70;;;11.43;;
40951;SDS011;26682;51.660;19.338;2023-02-28T11:48:43;16.83;;;10.88;;
40951;SDS011;26682;51.660;19.338;2023-02-28T11:51:32;14.88;;;10.35;;
40951;SDS011;26682;51.660;19.338;2023-02-28T11:57:53;19.67;;;10.50;;
40951;SDS011;26682;51.660;19.338;2023-02-28T12:01:28;19.52;;;10.10;;
40951;SDS011;26682;51.660;19.338;2023-02-28T12:04:25;21.92;;;10.10;;
40951;SDS011;26682;51.660;19.338;2023-02-28T12:14:14;24.42;;;12.38;;
40951;SDS011;26682;51.660;19.338;2023-02-28T12:17:16;20.03;;;10.47;;
40951;SDS011;26682;51.660;19.338;2023-02-28T12:26:00;17.00;;;10.20;;
40951;SDS011;26682;51.660;19.338;2023-02-28T12:28:46;18.67;;;8.98;;
40951;SDS011;26682;51.660;19.338;2023-02-28T12:31:35;22.42;;;10.25;;
40951;SDS011;26682;51.660;19.338;2023-02-28T12:34:26;18.75;;;9.40;;
40951;SDS011;26682;51.660;19.338;2023-02-28T12:41:14;18.88;;;10.65;;
40951;SDS011;26682;51.660;19.338;2023-02-28T12:44:20;18.50;;;9.30;;
40951;SDS011;26682;51.660;19.338;2023-02-28T12:47:14;13.82;;;9.07;;
40951;SDS011;26682;51.660;19.338;2023-02-28T12:50:00;12.88;;;9.60;;
40951;SDS011;26682;51.660;19.338;2023-02-28T13:09:04;17.23;;;10.68;;
40951;SDS011;26682;51.660;19.338;2023-02-28T13:11:50;20.73;;;10.80;;
40951;SDS011;26682;51.660;19.338;2023-02-28T13:14:36;20.23;;;11.18;;
40951;SDS011;26682;51.660;19.338;2023-02-28T13:17:20;27.60;;;11.20;;
40951;SDS011;26682;51.660;19.338;2023-02-28T13:20:04;18.80;;;10.20;;
40951;SDS011;26682;51.660;19.338;2023-02-28T13:23:16;21.40;;;10.75;;
40951;SDS011;26682;51.660;19.338;2023-02-28T13:26:20;18.00;;;11.55;;
40951;SDS011;26682;51.660;19.338;2023-02-28T13:29:27;17.23;;;10.85;;
40951;SDS011;26682;51.660;19.338;2023-02-28T13:37:42;16.40;;;9.93;;
40951;SDS011;26682;51.660;19.338;2023-02-28T13:40:27;18.30;;;12.45;;
40951;SDS011;26682;51.660;19.338;2023-02-28T13:43:19;18.67;;;11.10;;
40951;SDS011;26682;51.660;19.338;2023-02-28T13:46:17;16.88;;;10.50;;
40951;SDS011;26682;51.660;19.338;2023-02-28T13:52:21;20.65;;;12.20;;
40951;SDS011;26682;51.660;19.338;2023-02-28T13:59:42;201.30;;;84.28;;
40951;SDS011;26682;51.660;19.338;2023-02-28T14:02:36;131.27;;;59.65;;
40951;SDS011;26682;51.660;19.338;2023-02-28T14:05:44;46.78;;;23.63;;
40951;SDS011;26682;51.660;19.338;2023-02-28T14:08:30;18.85;;;11.90;;
40951;SDS011;26682;51.660;19.338;2023-02-28T14:11:27;29.02;;;16.35;;
40951;SDS011;26682;51.660;19.338;2023-02-28T14:17:17;18.80;;;11.77;;
40951;SDS011;26682;51.660;19.338;2023-02-28T14:20:02;28.67;;;16.05;;
40951;SDS011;26682;51.660;19.338;2023-02-28T14:26:19;22.73;;;12.32;;
40951;SDS011;26682;51.660;19.338;2023-02-28T14:30:26;19.80;;;11.85;;
40951;SDS011;26682;51.660;19.338;2023-02-28T14:35:53;23.10;;;13.23;;
40951;SDS011;26682;51.660;19.338;2023-02-28T14:41:44;24.45;;;14.23;;
40951;SDS011;26682;51.660;19.338;2023-02-28T14:44:30;22.77;;;12.35;;
40951;SDS011;26682;51.660;19.338;2023-02-28T14:47:14;21.30;;;12.10;;
40951;SDS011;26682;51.660;19.338;2023-02-28T14:49:58;18.25;;;11.65;;
40951;SDS011;26682;51.660;19.338;2023-02-28T14:52:43;22.70;;;11.52;;
40951;SDS011;26682;51.660;19.338;2023-02-28T14:55:26;22.27;;;13.90;;
40951;SDS011;26682;51.660;19.338;2023-02-28T14:58:26;21.42;;;11.77;;
40951;SDS011;26682;51.660;19.338;2023-02-28T15:01:10;20.08;;;12.98;;
40951;SDS011;26682;51.660;19.338;2023-02-28T15:03:58;18.13;;;11.90;;
40951;SDS011;26682;51.660;19.338;2023-02-28T15:06:43;20.75;;;12.57;;
40951;SDS011;26682;51.660;19.338;2023-02-28T15:09:26;22.55;;;14.10;;
40951;SDS011;26682;51.660;19.338;2023-02-28T15:12:13;40.55;;;16.27;;
40951;SDS011;26682;51.660;19.338;2023-02-28T15:14:56;26.00;;;14.18;;
40951;SDS011;26682;51.660;19.338;2023-02-28T15:17:39;21.73;;;12.98;;
40951;SDS011;26682;51.660;19.338;2023-02-28T15:20:28;22.73;;;13.32;;
40951;SDS011;26682;51.660;19.338;2023-02-28T15:23:11;35.35;;;16.85;;
40951;SDS011;26682;51.660;19.338;2023-02-28T15:25:54;30.55;;;17.65;;
40951;SDS011;26682;51.660;19.338;2023-02-28T15:28:37;22.55;;;13.07;;
40951;SDS011;26682;51.660;19.338;2023-02-28T15:31:26;32.58;;;18.98;;
40951;SDS011;26682;51.660;19.338;2023-02-28T15:34:35;25.85;;;14.40;;
40951;SDS011;26682;51.660;19.338;2023-02-28T15:37:31;27.00;;;15.50;;
40951;SDS011;26682;51.660;19.338;2023-02-28T15:43:18;22.70;;;13.80;;
40951;SDS011;26682;51.660;19.338;2023-02-28T15:46:12;32.97;;;17.50;;
40951;SDS011;26682;51.660;19.338;2023-02-28T15:48:58;32.17;;;16.30;;
40951;SDS011;26682;51.660;19.338;2023-02-28T15:51:41;27.80;;;16.33;;
40951;SDS011;26682;51.660;19.338;2023-02-28T15:54:28;82.28;;;33.67;;
40951;SDS011;26682;51.660;19.338;2023-02-28T15:57:24;231.80;;;85.07;;
40951;SDS011;26682;51.660;19.338;2023-02-28T16:00:16;350.98;;;112.05;;
40951;SDS011;26682;51.660;19.338;2023-02-28T16:03:22;36.60;;;18.95;;
40951;SDS011;26682;51.660;19.338;2023-02-28T16:06:32;60.88;;;26.52;;
40951;SDS011;26682;51.660;19.338;2023-02-28T16:09:24;81.13;;;32.97;;
40951;SDS011;26682;51.660;19.338;2023-02-28T16:12:09;47.38;;;22.65;;
40951;SDS011;26682;51.660;19.338;2023-02-28T16:14:56;29.42;;;16.90;;
40951;SDS011;26682;51.660;19.338;2023-02-28T16:17:43;35.95;;;19.08;;
40951;SDS011;26682;51.660;19.338;2023-02-28T16:20:28;36.13;;;20.30;;
40951;SDS011;26682;51.660;19.338;2023-02-28T16:23:12;48.35;;;22.38;;
40951;SDS011;26682;51.660;19.338;2023-02-28T16:25:55;54.88;;;27.48;;
40951;SDS011;26682;51.660;19.338;2023-02-28T16:28:38;96.25;;;44.03;;
40951;SDS011;26682;51.660;19.338;2023-02-28T16:31:20;155.02;;;70.15;;
40951;SDS011;26682;51.660;19.338;2023-02-28T16:34:04;165.93;;;72.95;;
40951;SDS011;26682;51.660;19.338;2023-02-28T16:36:47;92.22;;;39.53;;
40951;SDS011;26682;51.660;19.338;2023-02-28T16:39:30;71.18;;;30.55;;
40951;SDS011;26682;51.660;19.338;2023-02-28T16:42:20;65.07;;;28.02;;
40951;SDS011;26682;51.660;19.338;2023-02-28T16:45:10;70.63;;;29.65;;
40951;SDS011;26682;51.660;19.338;2023-02-28T16:47:58;131.00;;;58.85;;
40951;SDS011;26682;51.660;19.338;2023-02-28T16:50:41;62.05;;;32.28;;
40951;SDS011;26682;51.660;19.338;2023-02-28T16:53:26;56.97;;;31.70;;
40951;SDS011;26682;51.660;19.338;2023-02-28T16:56:16;62.17;;;35.92;;
40951;SDS011;26682;51.660;19.338;2023-02-28T16:59:01;65.38;;;34.97;;
40951;SDS011;26682;51.660;19.338;2023-02-28T17:01:44;61.35;;;35.75;;
40951;SDS011;26682;51.660;19.338;2023-02-28T17:04:27;62.25;;;34.95;;
40951;SDS011;26682;51.660;19.338;2023-02-28T17:07:10;63.50;;;36.85;;
40951;SDS011;26682;51.660;19.338;2023-02-28T17:09:54;54.35;;;32.08;;
40951;SDS011;26682;51.660;19.338;2023-02-28T17:12:37;204.85;;;92.18;;
40951;SDS011;26682;51.660;19.338;2023-02-28T17:15:20;133.45;;;68.45;;
40951;SDS011;26682;51.660;19.338;2023-02-28T17:18:03;93.90;;;47.58;;
40951;SDS011;26682;51.660;19.338;2023-02-28T17:20:46;82.93;;;43.70;;
40951;SDS011;26682;51.660;19.338;2023-02-28T17:23:29;74.50;;;43.42;;
40951;SDS011;26682;51.660;19.338;2023-02-28T17:26:20;69.22;;;39.53;;
40951;SDS011;26682;51.660;19.338;2023-02-28T17:29:14;77.15;;;40.83;;
40951;SDS011;26682;51.660;19.338;2023-02-28T17:31:58;82.82;;;44.42;;
40951;SDS011;26682;51.660;19.338;2023-02-28T17:34:50;87.57;;;43.47;;
40951;SDS011;26682;51.660;19.338;2023-02-28T17:37:34;81.55;;;42.90;;
40951;SDS011;26682;51.660;19.338;2023-02-28T17:40:19;83.40;;;43.10;;
40951;SDS011;26682;51.660;19.338;2023-02-28T17:43:04;85.28;;;47.15;;
40951;SDS011;26682;51.660;19.338;2023-02-28T17:45:46;112.03;;;54.30;;
40951;SDS011;26682;51.660;19.338;2023-02-28T17:48:29;139.82;;;67.32;;
40951;SDS011;26682;51.660;19.338;2023-02-28T17:51:13;149.68;;;68.82;;
40951;SDS011;26682;51.660;19.338;2023-02-28T17:53:57;136.52;;;63.13;;
40951;SDS011;26682;51.660;19.338;2023-02-28T17:56:40;131.15;;;62.78;;
40951;SDS011;26682;51.660;19.338;2023-02-28T17:59:24;130.60;;;63.08;;
40951;SDS011;26682;51.660;19.338;2023-02-28T18:02:08;116.97;;;56.33;;
40951;SDS011;26682;51.660;19.338;2023-02-28T18:04:53;134.00;;;60.72;;
40951;SDS011;26682;51.660;19.338;2023-02-28T18:07:37;152.85;;;74.07;;
40951;SDS011;26682;51.660;19.338;2023-02-28T18:10:20;185.02;;;84.25;;
40951;SDS011;26682;51.660;19.338;2023-02-28T18:13:03;169.40;;;82.43;;
40951;SDS011;26682;51.660;19.338;2023-02-28T18:15:46;138.70;;;69.43;;
40951;SDS011;26682;51.660;19.338;2023-02-28T18:18:29;129.52;;;61.47;;
40951;SDS011;26682;51.660;19.338;2023-02-28T18:21:13;167.20;;;81.60;;
40951;SDS011;26682;51.660;19.338;2023-02-28T18:23:57;163.30;;;75.07;;